Time;durP1;ratioP1;P1;durP2;ratioP2;P2;SDS_P1;SDS_P2;PMS_P1;PMS_P2;Temp;Humidity;BMP_temperature;BMP_pressure;BME280_temperature;BME280_humidity;BME280_pressure;Samples;Min_cycle;Max_cycle;Signal;HPM_P1;HPM_P2
2022/08/17 00:01:18;;;;;;;13.75;6.00;;;;;;;18.17;100.00;99088.05;1736831;81;21035;-72
2022/08/17 00:03:46;;;;;;;12.18;5.97;;;;;;;18.13;100.00;99085.16;1725407;81;21004;-72
2022/08/17 00:06:23;;;;;;;11.03;5.95;;;;;;;18.07;100.00;99075.47;1752243;80;21099;-72
2022/08/17 00:08:53;;;;;;;14.45;6.08;;;;;;;18.04;100.00;99084.41;1751202;81;20995;-71
2022/08/17 00:11:24;;;;;;;11.22;5.45;;;;;;;18.01;100.00;99072.69;1752647;81;21094;-73
2022/08/17 00:13:53;;;;;;;12.05;6.47;;;;;;;18.00;100.00;99078.52;1752151;81;21008;-72
2022/08/17 00:16:34;;;;;;;12.15;6.15;;;;;;;17.99;100.00;99079.69;1752482;81;21586;-73
2022/08/17 00:19:04;;;;;;;17.23;5.80;;;;;;;17.99;100.00;99081.06;1752102;81;21070;-73
2022/08/17 00:21:30;;;;;;;10.35;5.78;;;;;;;17.99;100.00;99075.55;1748519;81;21019;-73
2022/08/17 00:23:58;;;;;;;13.60;5.85;;;;;;;17.97;100.00;99074.50;1752265;81;20979;-73
2022/08/17 00:26:26;;;;;;;10.13;5.15;;;;;;;17.97;100.00;99073.13;1752551;80;21548;-73
2022/08/17 00:28:52;;;;;;;15.88;5.53;;;;;;;18.00;100.00;99078.52;1749771;81;20984;-73
2022/08/17 00:31:19;;;;;;;11.35;5.80;;;;;;;17.99;100.00;99076.36;1745007;81;21012;-73
2022/08/17 00:33:45;;;;;;;13.43;6.12;;;;;;;17.99;100.00;99072.23;1752151;81;21005;-73
2022/08/17 00:36:13;;;;;;;13.38;6.28;;;;;;;17.98;100.00;99078.87;1754794;81;21031;-72
2022/08/17 00:38:40;;;;;;;10.98;6.00;;;;;;;18.01;100.00;99078.77;1753640;81;20955;-73
2022/08/17 00:41:14;;;;;;;11.18;5.70;;;;;;;18.01;100.00;99074.06;1715056;82;21568;-73
2022/08/17 00:43:47;;;;;;;13.30;5.78;;;;;;;17.97;100.00;99077.81;1754920;81;20995;-73
2022/08/17 00:46:19;;;;;;;12.10;5.58;;;;;;;17.97;100.00;99085.52;1755054;81;21094;-73
2022/08/17 00:48:45;;;;;;;15.55;6.03;;;;;;;17.94;100.00;99084.81;1754695;81;20971;-72
2022/08/17 00:51:43;;;;;;;12.25;5.80;;;;;;;17.89;100.00;99078.92;1751073;81;21049;-72
2022/08/17 00:54:17;;;;;;;10.93;5.92;;;;;;;17.82;100.00;99078.66;1747732;81;21464;-73
2022/08/17 00:56:49;;;;;;;10.03;5.87;;;;;;;17.74;100.00;99079.55;1752433;81;21065;-72
2022/08/17 00:59:19;;;;;;;12.35;6.00;;;;;;;17.73;100.00;99079.30;1740958;80;21000;-73
2022/08/17 01:01:47;;;;;;;14.38;6.25;;;;;;;17.72;100.00;99083.75;1750431;80;21051;-73
2022/08/17 01:04:14;;;;;;;11.83;6.22;;;;;;;17.71;100.00;99094.55;1742967;81;21502;-72
2022/08/17 01:06:41;;;;;;;16.37;7.03;;;;;;;17.71;100.00;99091.20;1754991;80;21553;-72
2022/08/17 01:09:08;;;;;;;11.48;6.30;;;;;;;17.70;100.00;99084.67;1754885;81;21558;-73
2022/08/17 01:11:39;;;;;;;14.70;6.62;;;;;;;17.69;100.00;99083.86;1748705;80;21600;-73
2022/08/17 01:14:02;;;;;;;13.83;6.28;;;;;;;17.69;100.00;99087.17;1756198;81;21006;-73
2022/08/17 01:16:30;;;;;;;12.90;7.15;;;;;;;17.70;100.00;99090.17;1755566;80;21450;-73
2022/08/17 01:19:03;;;;;;;15.28;6.58;;;;;;;17.69;100.00;99085.80;1754569;81;21038;-74
2022/08/17 01:21:41;;;;;;;11.33;6.55;;;;;;;17.68;100.00;99086.37;1753356;81;21467;-74
2022/08/17 01:24:07;;;;;;;15.03;6.78;;;;;;;17.70;100.00;99075.84;1746772;80;21074;-74
2022/08/17 01:26:34;;;;;;;10.20;6.15;;;;;;;17.73;100.00;99078.49;1754933;81;21600;-73
2022/08/17 01:29:01;;;;;;;12.20;6.12;;;;;;;17.75;100.00;99077.58;1748473;81;21356;-74
2022/08/17 01:31:31;;;;;;;11.68;5.95;;;;;;;17.77;100.00;99078.06;1699754;81;21087;-73
2022/08/17 01:33:58;;;;;;;12.03;5.92;;;;;;;17.79;100.00;99073.83;1752109;80;21525;-74
2022/08/17 01:36:26;;;;;;;7.17;5.47;;;;;;;17.82;100.00;99067.64;1706470;82;21410;-74
2022/08/17 01:38:52;;;;;;;13.43;6.12;;;;;;;17.84;100.00;99063.19;1703782;82;21334;-74
2022/08/17 01:41:19;;;;;;;;;;;;;;;17.85;100.00;99057.33;1744312;82;21667;-74
2022/08/17 01:43:56;;;;;;;11.57;6.37;;;;;;;17.79;100.00;99057.88;1730186;81;20157;-74
2022/08/17 01:46:26;;;;;;;13.80;6.28;;;;;;;17.66;100.00;99052.07;1724928;82;21059;-73
2022/08/17 01:48:53;;;;;;;10.72;6.67;;;;;;;17.58;100.00;99050.98;1741014;82;20967;-72
2022/08/17 01:51:20;;;;;;;12.82;6.25;;;;;;;17.50;100.00;99050.44;1736138;82;21008;-72
2022/08/17 01:53:53;;;;;;;13.43;5.85;;;;;;;17.46;100.00;99049.52;1729519;82;21525;-72
2022/08/17 01:56:21;;;;;;;13.72;6.22;;;;;;;17.46;100.00;99055.58;1690790;83;21054;-72
2022/08/17 01:58:47;;;;;;;12.13;6.25;;;;;;;17.44;100.00;99055.91;1741932;81;20980;-73
2022/08/17 02:01:22;;;;;;;11.63;6.67;;;;;;;17.44;100.00;99055.91;1741189;81;21206;-73
2022/08/17 02:03:48;;;;;;;15.00;6.45;;;;;;;17.39;100.00;99054.14;1726665;81;21510;-72
2022/08/17 02:06:14;;;;;;;;;;;;;;;17.37;100.00;99050.92;1725691;82;21114;-72
2022/08/17 02:08:41;;;;;;;15.23;6.40;;;;;;;17.36;100.00;99054.81;1709795;82;20107;-73
2022/08/17 02:11:13;;;;;;;10.98;6.10;;;;;;;17.29;100.00;99053.72;1742719;82;21043;-70
2022/08/17 02:13:39;;;;;;;11.90;6.45;;;;;;;17.26;100.00;99048.88;1729344;81;21019;-72
2022/08/17 02:16:06;;;;;;;10.65;6.12;;;;;;;17.25;100.00;99047.30;1717004;82;21051;-74
2022/08/17 02:18:32;;;;;;;;;;;;;;;17.24;100.00;99048.42;1736366;82;21051;-75
2022/08/17 02:20:58;;;;;;;10.25;6.17;;;;;;;17.21;100.00;99045.77;1725656;82;20106;-74
2022/08/17 02:23:27;;;;;;;12.37;6.25;;;;;;;17.16;100.00;99048.70;1725775;81;21015;-73
2022/08/17 02:25:53;;;;;;;10.85;5.92;;;;;;;17.13;100.00;99051.31;1739653;82;21533;-73
2022/08/17 02:28:20;;;;;;;13.88;6.25;;;;;;;17.11;100.00;99043.97;1734296;82;21053;-73
2022/08/17 02:30:46;;;;;;;12.90;6.12;;;;;;;17.14;100.00;99041.93;1743837;82;21591;-73
2022/08/17 02:33:13;;;;;;;8.60;5.67;;;;;;;17.15;100.00;99037.45;1718397;81;21015;-71
2022/08/17 02:35:41;;;;;;;10.88;5.78;;;;;;;17.18;100.00;99036.01;1734761;81;21126;-71
2022/08/17 02:38:07;;;;;;;8.35;5.22;;;;;;;17.21;100.00;99039.47;1750761;81;20968;-71
2022/08/17 02:40:34;;;;;;;10.38;5.83;;;;;;;17.25;100.00;99034.91;1745593;81;21472;-71
2022/08/17 02:43:00;;;;;;;11.60;5.55;;;;;;;17.27;100.00;99036.19;1746652;81;20948;-72
2022/08/17 02:45:26;;;;;;;;;;;;;;;17.27;100.00;99038.13;1747249;81;21477;-71
2022/08/17 02:47:53;;;;;;;14.05;5.78;;;;;;;17.28;100.00;99037.81;1751145;81;20136;-71
2022/08/17 02:50:21;;;;;;;11.88;5.20;;;;;;;17.25;100.00;99033.54;1745235;81;21043;-71
2022/08/17 02:52:49;;;;;;;12.03;6.22;;;;;;;17.25;100.00;99037.07;1739545;81;21055;-71
2022/08/17 02:55:20;;;;;;;10.30;5.72;;;;;;;17.22;100.00;99033.61;1743029;80;21062;-71
2022/08/17 02:57:46;;;;;;;14.05;5.45;;;;;;;17.20;100.00;99035.09;1742687;81;20996;-72
2022/08/17 03:00:20;;;;;;;9.45;5.65;;;;;;;17.21;100.00;99038.09;1741232;81;21882;-71
2022/08/17 03:02:46;;;;;;;11.25;5.50;;;;;;;17.20;100.00;99035.91;1742777;81;20995;-72
2022/08/17 03:05:15;;;;;;;8.68;5.17;;;;;;;17.22;100.00;99043.23;1737926;81;21634;-71
2022/08/17 03:07:41;;;;;;;12.58;6.00;;;;;;;17.23;100.00;99035.80;1744825;81;21081;-71
2022/08/17 03:10:10;;;;;;;16.00;6.58;;;;;;;17.25;100.00;99037.07;1738767;80;21094;-70
2022/08/17 03:12:38;;;;;;;8.38;5.25;;;;;;;17.24;100.00;99045.11;1738605;81;20999;-71
2022/08/17 03:15:10;;;;;;;10.93;5.55;;;;;;;17.25;100.00;99048.08;1742925;81;21082;-71
2022/08/17 03:17:37;;;;;;;11.65;5.60;;;;;;;17.29;100.00;99049.59;1745387;81;21529;-71
2022/08/17 03:20:05;;;;;;;13.32;5.70;;;;;;;17.36;100.00;99054.81;1737608;81;21075;-71
2022/08/17 03:22:38;;;;;;;10.08;5.70;;;;;;;17.39;100.00;99046.48;1742898;81;20996;-72
2022/08/17 03:25:08;;;;;;;10.98;5.90;;;;;;;17.41;100.00;99045.56;1744340;81;21573;-72
2022/08/17 03:27:35;;;;;;;9.85;5.92;;;;;;;17.44;100.00;99043.52;1753156;81;20976;-71
2022/08/17 03:30:04;;;;;;;11.80;5.85;;;;;;;17.49;100.00;99037.84;1745731;81;21011;-72
2022/08/17 03:32:41;;;;;;;10.95;5.75;;;;;;;17.48;100.00;99036.78;1731979;81;20987;-71
2022/08/17 03:35:08;;;;;;;9.10;5.83;;;;;;;17.50;100.00;99040.02;1717320;82;21063;-73
2022/08/17 03:37:35;;;;;;;12.00;5.83;;;;;;;17.57;100.00;99041.11;1748049;81;21007;-73
2022/08/17 03:40:03;;;;;;;8.10;5.25;;;;;;;17.63;100.00;99040.36;1752345;81;21436;-73
2022/08/17 03:42:29;;;;;;;10.88;5.47;;;;;;;17.68;100.00;99045.08;1746378;81;21541;-73
2022/08/17 03:44:56;;;;;;;12.10;5.60;;;;;;;17.74;100.00;99045.14;1751120;81;21019;-72
2022/08/17 03:58:24;;;;;;;12.70;5.83;;;;;;;18.19;100.00;99044.42;1751680;81;20975;-71
2022/08/17 04:00:50;;;;;;;9.48;5.67;;;;;;;18.29;100.00;99038.48;1751169;81;21139;-72
2022/08/17 04:03:16;;;;;;;12.35;5.78;;;;;;;18.46;100.00;99030.64;1753669;81;21504;-72
2022/08/17 04:05:43;;;;;;;10.95;5.40;;;;;;;18.69;100.00;99037.38;1749656;80;21111;-71
2022/08/17 04:08:10;;;;;;;9.78;5.62;;;;;;;18.94;100.00;99036.83;1752494;81;21075;-71
2022/08/17 04:10:37;;;;;;;9.75;4.92;;;;;;;19.16;100.00;99028.11;1752337;81;21099;-72
2022/08/17 04:13:04;;;;;;;10.38;5.42;;;;;;;19.37;100.00;99028.22;1749575;81;21044;-71
2022/08/17 04:15:32;;;;;;;10.18;5.25;;;;;;;19.64;100.00;99012.08;1747702;80;21589;-73
2022/08/17 04:17:58;;;;;;;13.55;5.70;;;;;;;19.93;100.00;99017.87;1754228;81;21019;-70
2022/08/17 04:20:26;;;;;;;9.30;5.10;;;;;;;20.17;100.00;99010.86;1751421;81;21066;-70
2022/08/17 04:23:05;;;;;;;13.30;5.97;;;;;;;20.39;100.00;98995.13;1746152;81;20980;-70
2022/08/17 04:25:35;;;;;;;8.40;5.37;;;;;;;20.58;100.00;99001.36;1751232;81;21046;-69
2022/08/17 04:28:02;;;;;;;8.95;5.08;;;;;;;20.85;100.00;98994.36;1718376;82;21131;-73
2022/08/17 04:32:03;;;;;;;9.40;5.20;;;;;;;21.32;100.00;98984.65;1779148;79;22785;-69
2022/08/17 04:34:29;;;;;;;11.28;5.42;;;;;;;21.50;100.00;98987.81;1727745;82;21035;-71
2022/08/17 04:36:56;;;;;;;10.05;5.40;;;;;;;21.73;100.00;98983.16;1726256;82;21067;-70
2022/08/17 04:39:24;;;;;;;10.63;5.15;;;;;;;21.95;100.00;98986.41;1722528;83;21038;-70
2022/08/17 04:42:06;;;;;;;9.90;5.67;;;;;;;22.16;100.00;98986.25;1731677;82;21121;-71
2022/08/17 04:44:33;;;;;;;10.28;5.60;;;;;;;22.28;100.00;98978.38;1735189;82;21004;-71
2022/08/17 04:47:00;;;;;;;9.85;5.28;;;;;;;22.37;100.00;98967.83;1735997;82;21039;-70
2022/08/17 04:49:27;;;;;;;14.10;5.28;;;;;;;22.40;100.00;98962.13;1732341;81;20983;-70
2022/08/17 04:51:53;;;;;;;9.45;5.60;;;;;;;22.40;100.00;98951.03;1722035;82;21640;-72
2022/08/17 04:54:22;;;;;;;9.25;4.90;;;;;;;22.35;100.00;98952.16;1723770;82;21019;-73
2022/08/17 04:56:48;;;;;;;10.75;5.47;;;;;;;22.26;100.00;98959.31;1731987;82;21727;-71
2022/08/17 04:59:19;;;;;;;11.95;6.00;;;;;;;22.24;100.00;98961.67;1726752;82;21034;-71
2022/08/17 05:01:48;;;;;;;11.48;5.95;;;;;;;22.20;100.00;98964.95;1722179;83;21023;-72
2022/08/17 05:04:22;;;;;;;7.00;5.20;;;;;;;22.12;100.00;98973.48;1722530;83;20995;-72
2022/08/17 05:06:49;;;;;;;9.48;5.28;;;;;;;22.14;100.00;98968.40;1748688;81;21597;-71
2022/08/17 05:09:16;;;;;;;12.88;5.97;;;;;;;22.19;100.00;98969.47;1752365;82;20987;-73
2022/08/17 05:11:45;;;;;;;14.25;6.78;;;;;;;22.25;100.00;98963.83;1752025;82;21920;-70
2022/08/17 05:14:12;;;;;;;9.50;5.60;;;;;;;22.25;100.00;98963.83;1746307;82;21487;-71
2022/08/17 05:16:39;;;;;;;10.30;5.60;;;;;;;22.09;100.00;98966.72;1751961;82;21110;-71
2022/08/17 05:19:05;;;;;;;11.60;5.90;;;;;;;22.10;100.00;98968.91;1752269;82;21513;-71
2022/08/17 05:21:32;;;;;;;8.13;5.62;;;;;;;22.24;100.00;98969.98;1752253;82;21089;-72
2022/08/17 05:23:58;;;;;;;13.72;5.58;;;;;;;22.46;100.00;98966.22;1746407;82;21646;-72
2022/08/17 05:26:26;;;;;;;9.45;5.40;;;;;;;22.46;100.00;98966.22;1733416;82;21146;-72
2022/08/17 05:28:54;;;;;;;11.03;5.53;;;;;;;22.63;100.00;98965.73;1752127;82;21011;-71
2022/08/17 05:31:21;;;;;;;13.50;5.37;;;;;;;22.67;100.00;98966.63;1743975;81;21060;-69
2022/08/17 05:33:48;;;;;;;11.43;5.58;;;;;;;22.73;100.00;98976.23;1733324;82;21078;-71
2022/08/17 05:36:15;;;;;;;11.08;5.60;;;;;;;22.90;100.00;98980.47;1738675;82;21134;-71
2022/08/17 05:38:42;;;;;;;11.97;5.83;;;;;;;23.15;100.00;98980.28;1738749;82;21447;-72
2022/08/17 05:41:09;;;;;;;13.10;6.08;;;;;;;23.47;100.00;98985.76;1738611;82;21110;-72
2022/08/17 05:43:39;;;;;;;10.53;6.08;;;;;;;23.79;100.00;98988.97;1733263;82;21036;-71
2022/08/17 05:46:23;;;;;;;11.65;5.70;;;;;;;24.01;100.00;98991.43;1738376;82;21050;-71
2022/08/17 05:49:00;;;;;;;11.33;5.47;;;;;;;24.24;100.00;98994.31;1738609;82;21553;-70
2022/08/17 05:51:50;;;;;;;15.03;5.95;;;;;;;24.40;100.00;98995.48;1737430;81;21034;-72
2022/08/17 05:54:31;;;;;;;11.18;6.00;;;;;;;24.54;100.00;98999.00;1738592;82;21031;-72
2022/08/17 05:57:40;;;;;;;10.08;5.83;;;;;;;24.66;100.00;98990.36;1738030;82;21142;-72
2022/08/17 06:00:24;;;;;;;11.90;5.78;;;;;;;24.84;100.00;98987.77;1717480;82;21039;-73
2022/08/17 06:03:18;;;;;;;10.75;5.90;;;;;;;25.11;100.00;98995.59;1716113;82;21051;-73
2022/08/17 06:06:08;;;;;;;12.88;5.87;;;;;;;25.26;100.00;98991.70;1709048;84;21137;-73
2022/08/17 06:08:48;;;;;;;13.70;6.10;;;;;;;25.16;100.00;98996.60;1708920;84;21102;-73
2022/08/17 06:11:33;;;;;;;11.10;5.67;;;;;;;25.05;100.00;98995.72;1723095;82;21090;-72
2022/08/17 06:14:26;;;;;;;9.98;5.60;;;;;;;25.03;100.00;99006.45;1738269;82;21458;-72
2022/08/17 06:17:00;;;;;;;8.58;5.75;;;;;;;25.11;100.00;99010.09;1738401;82;21119;-70
2022/08/17 06:19:55;;;;;;;11.48;5.53;;;;;;;25.20;100.00;99007.18;1738621;82;20999;-69
2022/08/17 06:22:25;;;;;;;11.40;5.70;;;;;;;25.24;100.00;99004.42;1733548;82;21079;-70
2022/08/17 06:24:56;;;;;;;15.00;6.20;;;;;;;25.31;100.00;98999.48;1738565;82;21000;-70
2022/08/17 06:27:34;;;;;;;11.20;5.37;;;;;;;25.38;100.00;99003.72;1738654;82;21091;-70
2022/08/17 06:30:14;;;;;;;8.00;5.53;;;;;;;25.49;100.00;99002.61;1733111;82;21593;-71
2022/08/17 06:32:44;;;;;;;12.28;5.95;;;;;;;25.73;100.00;98997.80;1738527;82;21475;-71
2022/08/17 06:35:15;;;;;;;9.93;5.53;;;;;;;25.87;100.00;98998.46;1738796;82;21067;-73
2022/08/17 06:37:58;;;;;;;9.18;5.90;;;;;;;25.89;100.00;99000.28;1738343;81;20988;-70
2022/08/17 06:40:57;;;;;;;12.58;5.80;;;;;;;25.89;100.00;98992.51;1733122;82;21020;-70
2022/08/17 06:43:41;;;;;;;12.45;5.55;;;;;;;25.77;100.00;98999.21;1711921;81;21569;-71
2022/08/17 06:46:16;;;;;;;7.95;5.10;;;;;;;25.82;100.00;99000.24;1709098;84;21055;-71
2022/08/17 06:48:47;;;;;;;7.17;4.67;;;;;;;25.78;100.00;99000.02;1715181;82;21475;-72
2022/08/17 06:51:31;;;;;;;9.75;5.05;;;;;;;25.90;100.00;99002.48;1738275;82;21094;-71
2022/08/17 06:54:32;;;;;;;13.85;6.10;;;;;;;25.94;100.00;99001.87;1738703;82;21031;-70
2022/08/17 06:57:14;;;;;;;11.48;5.08;;;;;;;26.21;100.00;99004.63;1738446;82;21131;-73
2022/08/17 07:00:12;;;;;;;11.38;5.17;;;;;;;26.41;100.00;98993.31;1723117;82;20988;-74
2022/08/17 07:02:47;;;;;;;9.18;5.37;;;;;;;26.52;100.00;98993.34;1708957;84;21051;-72
2022/08/17 07:05:15;;;;;;;10.70;4.95;;;;;;;26.47;100.00;99001.48;1709281;84;21562;-72
2022/08/17 07:08:02;;;;;;;9.05;5.03;;;;;;;26.35;100.00;98995.49;1711383;82;21020;-73
2022/08/17 07:10:43;;;;;;;10.20;5.35;;;;;;;26.40;100.00;99007.05;1709211;83;21051;-73
2022/08/17 07:13:49;;;;;;;13.55;5.60;;;;;;;26.47;100.00;99006.27;1708961;84;21108;-71
2022/08/17 07:16:40;;;;;;;9.58;4.83;;;;;;;26.35;100.00;99000.48;1709028;84;21126;-73
2022/08/17 07:19:07;;;;;;;11.15;5.72;;;;;;;26.17;100.00;99004.61;1710943;82;20995;-71
2022/08/17 07:22:12;;;;;;;10.10;4.92;;;;;;;26.20;100.00;99008.00;1709134;84;21067;-72
2022/08/17 07:24:57;;;;;;;9.80;5.03;;;;;;;26.14;100.00;99005.96;1708908;83;21083;-72
2022/08/17 07:27:26;;;;;;;8.88;5.70;;;;;;;26.20;100.00;99003.82;1709366;82;21577;-73
2022/08/17 07:30:15;;;;;;;10.03;5.60;;;;;;;26.19;100.00;99002.21;1709109;83;21059;-71
2022/08/17 07:32:45;;;;;;;11.88;5.90;;;;;;;26.09;100.00;99004.93;1708900;83;21071;-72
2022/08/17 07:35:30;;;;;;;11.70;6.05;;;;;;;25.93;100.00;99003.08;1709186;82;21016;-72
2022/08/17 07:38:18;;;;;;;9.15;5.78;;;;;;;25.79;100.00;99002.39;1663476;86;21146;-73
2022/08/17 07:41:00;;;;;;;10.45;5.65;;;;;;;25.64;100.00;98999.34;1709189;84;21083;-73
2022/08/17 07:43:46;;;;;;;8.73;5.53;;;;;;;25.50;100.00;99006.20;1665496;84;21006;-74
2022/08/17 07:49:13;;;;;;;11.78;5.85;;;;;;;25.78;100.00;99001.41;1709198;83;21320;-70
2022/08/17 07:51:49;;;;;;;9.93;5.72;;;;;;;26.06;100.00;99002.93;1708973;84;21083;-71
2022/08/17 07:54:21;;;;;;;13.75;6.17;;;;;;;26.31;100.00;98996.08;1709850;82;21624;-69
2022/08/17 07:56:55;;;;;;;13.18;5.00;;;;;;;26.43;100.00;98992.31;1737832;82;21586;-72
2022/08/17 07:59:37;;;;;;;10.68;5.50;;;;;;;26.57;100.00;98987.37;1733271;82;21534;-73
2022/08/17 08:02:30;;;;;;;8.78;5.05;;;;;;;26.68;100.00;98995.14;1737542;82;21075;-72
2022/08/17 08:05:13;;;;;;;9.80;5.10;;;;;;;26.56;100.00;98989.95;1738633;81;20992;-72
2022/08/17 08:08:00;;;;;;;10.98;5.45;;;;;;;26.53;100.00;98990.75;1738301;82;21903;-71
2022/08/17 08:10:37;;;;;;;10.00;5.47;;;;;;;26.64;100.00;98984.59;1738688;82;21020;-71
2022/08/17 08:13:22;;;;;;;12.65;5.97;;;;;;;26.92;100.00;98988.03;1720227;82;21090;-73
2022/08/17 08:15:52;;;;;;;11.28;5.28;;;;;;;27.24;100.00;98972.66;1690365;82;21123;-72
2022/08/17 08:18:32;;;;;;;10.65;5.45;;;;;;;27.34;100.00;98978.83;1693829;84;21084;-72
2022/08/17 08:21:29;;;;;;;11.08;5.08;;;;;;;27.30;100.00;98978.03;1717617;82;21016;-72
2022/08/17 08:24:08;;;;;;;11.75;4.95;;;;;;;27.42;100.00;98976.22;1738535;82;20999;-72
2022/08/17 08:26:45;;;;;;;12.55;5.22;;;;;;;27.64;100.00;98972.19;1738426;82;21051;-71
2022/08/17 08:29:27;;;;;;;10.90;5.08;;;;;;;28.03;100.00;98972.84;1738633;82;20960;-72
2022/08/17 08:32:15;;;;;;;9.53;5.15;;;;;;;28.38;100.00;98965.48;1715418;82;21043;-71
2022/08/17 08:35:02;;;;;;;10.43;5.15;;;;;;;28.60;100.00;98970.55;1691469;84;21054;-71
2022/08/17 08:37:34;;;;;;;9.63;5.70;;;;;;;28.66;100.00;98970.30;1708881;84;21079;-70
2022/08/17 08:40:25;;;;;;;12.03;5.05;;;;;;;28.42;100.00;98967.06;1719215;82;21498;-70
2022/08/17 08:43:23;;;;;;;13.65;5.47;;;;;;;28.49;100.00;98964.82;1738142;82;21051;-71
2022/08/17 08:46:04;;;;;;;11.53;5.40;;;;;;;28.80;100.00;98961.05;1738002;82;21031;-73
2022/08/17 08:49:00;;;;;;;10.15;5.08;;;;;;;29.19;100.00;98956.51;1738495;82;21008;-72
2022/08/17 08:51:55;;;;;;;11.10;5.03;;;;;;;29.49;100.00;98960.02;1713779;82;21077;-72
2022/08/17 08:54:49;;;;;;;13.10;5.75;;;;;;;29.45;100.00;98954.45;1716198;82;21063;-71
2022/08/17 08:57:37;;;;;;;10.70;5.35;;;;;;;29.36;100.00;98954.77;1708868;84;21627;-72
2022/08/17 09:00:22;;;;;;;12.45;5.10;;;;;;;29.41;100.00;98964.91;1730701;82;21657;-71
2022/08/17 09:03:12;;;;;;;9.20;5.00;;;;;;;29.50;100.00;98957.42;1738437;82;21058;-73
2022/08/17 09:06:18;;;;;;;13.38;5.35;;;;;;;29.67;100.00;98952.81;1710758;82;21569;-73
2022/08/17 09:08:54;;;;;;;13.45;5.17;;;;;;;29.71;100.00;98948.77;1709326;84;21007;-73
2022/08/17 09:11:44;;;;;;;10.78;5.30;;;;;;;29.69;100.00;98957.41;1708665;83;21048;-71
2022/08/17 09:14:27;;;;;;;12.75;5.22;;;;;;;29.77;100.00;98949.09;1714147;82;21530;-71
2022/08/17 09:17:18;;;;;;;14.70;6.00;;;;;;;29.76;100.00;98956.70;1708418;84;21072;-71
2022/08/17 09:20:02;;;;;;;12.78;5.50;;;;;;;29.85;100.00;98948.63;1709307;83;21024;-71
2022/08/17 09:22:41;;;;;;;11.53;5.92;;;;;;;29.85;100.00;98950.02;1710494;82;21091;-72
2022/08/17 09:25:22;;;;;;;12.20;7.45;;;;;;;29.88;100.00;98949.19;1709330;84;21063;-70
2022/08/17 09:28:05;;;;;;;12.85;6.65;;;;;;;29.93;99.39;98954.34;1709264;83;21058;-70
2022/08/17 09:30:44;;;;;;;14.45;6.47;;;;;;;29.84;98.04;98954.61;1708993;84;21099;-72
2022/08/17 09:33:13;;;;;;;12.90;5.55;;;;;;;29.78;99.59;98952.89;1731905;82;21063;-72
2022/08/17 09:35:48;;;;;;;19.45;6.17;;;;;;;29.66;98.89;98954.82;1738638;82;21569;-71
2022/08/17 09:38:46;;;;;;;10.93;4.90;;;;;;;29.55;100.00;98961.15;1733753;82;21070;-72
2022/08/17 09:41:21;;;;;;;15.88;5.50;;;;;;;29.44;100.00;98952.09;1738157;82;21036;-73
2022/08/17 09:44:19;;;;;;;152.68;124.22;;;;;;;29.38;100.00;98952.33;1737444;82;20972;-73
2022/08/17 09:47:03;;;;;;;77.47;57.80;;;;;;;29.28;100.00;98949.03;1738359;82;21134;-71
2022/08/17 09:49:46;;;;;;;32.58;21.77;;;;;;;29.24;100.00;98940.63;1738588;81;21066;-71
2022/08/17 09:52:23;;;;;;;23.05;10.05;;;;;;;29.32;100.00;98946.39;1733002;82;21032;-71
2022/08/17 09:54:52;;;;;;;26.73;14.90;;;;;;;29.39;100.00;98937.91;1738647;82;21003;-70
2022/08/17 09:57:46;;;;;;;47.23;28.67;;;;;;;29.40;100.00;98940.11;1738275;82;21134;-71
2022/08/17 10:00:26;;;;;;;21.07;9.18;;;;;;;29.28;100.00;98944.83;1738544;82;21000;-71
2022/08/17 10:03:28;;;;;;;14.43;6.20;;;;;;;29.08;100.00;98944.59;1709364;82;21083;-70
2022/08/17 10:06:12;;;;;;;29.52;14.20;;;;;;;28.95;100.00;98945.70;1709334;84;21107;-70
2022/08/17 10:08:51;;;;;;;16.80;7.37;;;;;;;28.93;100.00;98950.93;1709037;84;21106;-71
2022/08/17 10:18:52;;;;;;;;;;;;;;;28.47;100.00;98942.85;1821228;79;23453;-70
2022/08/17 10:27:01;;;;;;;12.15;6.08;;;;;;;28.36;100.00;98941.32;1791936;79;21101;-69
2022/08/17 10:29:35;;;;;;;37.67;18.42;;;;;;;28.34;100.00;98945.91;1788846;78;21007;-73
2022/08/17 10:32:07;;;;;;;34.93;16.30;;;;;;;28.33;100.00;98946.34;1776675;81;21039;-71
2022/08/17 10:35:05;;;;;;;35.33;20.68;;;;;;;28.38;100.00;98955.69;1776498;81;21546;-73
2022/08/17 10:37:58;;;;;;;18.92;9.78;;;;;;;28.43;100.00;98949.67;1775850;81;21098;-70
2022/08/17 10:41:00;;;;;;;16.62;6.53;;;;;;;28.47;100.00;98944.84;1786487;78;21062;-71
2022/08/17 10:43:47;;;;;;;25.25;10.68;;;;;;;28.46;100.00;98944.05;1791407;79;21062;-73
2022/08/17 10:46:36;;;;;;;17.35;7.08;;;;;;;28.49;100.00;98944.63;1790129;78;21106;-70
2022/08/17 10:49:20;;;;;;;15.50;6.40;;;;;;;28.54;100.00;98943.41;1790178;80;21019;-73
2022/08/17 10:51:53;;;;;;;14.55;7.05;;;;;;;28.56;100.00;98949.37;1725627;83;21138;-71
2022/08/17 10:54:48;;;;;;;14.78;6.85;;;;;;;28.55;100.00;98945.80;1755667;82;21502;-72
2022/08/17 10:57:40;;;;;;;14.85;6.53;;;;;;;28.53;100.00;98937.00;1739762;80;21056;-71
2022/08/17 11:00:14;;;;;;;18.02;7.20;;;;;;;28.54;100.00;98941.41;1756700;80;21040;-71
2022/08/17 11:02:52;;;;;;;14.98;6.40;;;;;;;28.58;100.00;98939.98;1759342;80;21048;-69
2022/08/17 11:05:52;;;;;;;12.68;6.70;;;;;;;28.59;100.00;98933.17;1757131;81;21076;-70
2022/08/17 11:08:55;;;;;;;20.95;6.92;;;;;;;28.64;100.00;98938.32;1757073;81;21103;-70
2022/08/17 11:11:42;;;;;;;14.23;7.45;;;;;;;28.74;100.00;98935.27;1755606;80;21084;-73
2022/08/17 11:14:46;;;;;;;19.98;7.70;;;;;;;28.81;100.00;98930.41;1727248;83;21060;-71
2022/08/17 11:17:43;;;;;;;15.68;7.37;;;;;;;28.78;100.00;98922.04;1749670;81;21089;-73
2022/08/17 11:20:37;;;;;;;13.05;6.72;;;;;;;28.73;100.00;98930.30;1743330;81;21013;-69
2022/08/17 11:23:18;;;;;;;14.07;6.22;;;;;;;28.70;100.00;98926.89;1663876;86;21031;-71
2022/08/17 11:25:52;;;;;;;13.03;6.03;;;;;;;28.73;100.00;98927.50;1736766;82;21106;-72
2022/08/17 11:28:35;;;;;;;10.53;6.33;;;;;;;28.74;100.00;98924.87;1736471;82;21086;-72
2022/08/17 11:31:10;;;;;;;13.72;7.00;;;;;;;28.78;100.00;98917.84;1749343;79;21052;-72
2022/08/17 11:33:51;;;;;;;15.08;7.25;;;;;;;28.84;100.00;98913.41;1772948;79;21060;-72
2022/08/17 11:36:38;;;;;;;21.37;6.62;;;;;;;28.93;100.00;98913.11;1776457;81;21581;-73
2022/08/17 11:39:23;;;;;;;;;;;;;;;29.02;100.00;98920.42;1778284;79;21063;-73
2022/08/17 11:42:28;;;;;;;13.93;6.97;;;;;;;29.13;100.00;98916.91;1777806;81;20116;-71
2022/08/17 11:45:09;;;;;;;15.60;6.95;;;;;;;29.13;100.00;98918.31;1776942;80;21127;-73
2022/08/17 11:53:41;;;;;;;17.95;7.00;;;;;;;28.85;100.00;98903.17;1777730;80;21023;-72
2022/08/17 11:59:42;;;;;;;;;;;;;;;28.74;100.00;98896.86;1802987;78;22991;-71
2022/08/17 12:02:31;;;;;;;12.67;6.53;;;;;;;28.62;100.00;98897.35;1753341;81;20102;-71
2022/08/17 12:05:26;;;;;;;14.43;6.05;;;;;;;28.58;100.00;98908.58;1752129;82;21004;-72
2022/08/17 12:08:11;;;;;;;13.08;5.70;;;;;;;28.71;100.00;98903.89;1751589;82;21059;-73
2022/08/17 12:10:52;;;;;;;12.75;5.97;;;;;;;28.75;100.00;98890.66;1746170;82;21058;-73
2022/08/17 12:13:20;;;;;;;14.65;6.00;;;;;;;28.79;100.00;98895.63;1750374;82;21121;-72
2022/08/17 12:15:48;;;;;;;14.28;6.62;;;;;;;28.84;100.00;98895.20;1751350;82;21106;-71
2022/08/17 12:18:28;;;;;;;15.80;7.20;;;;;;;28.82;100.00;98895.59;1752117;82;21541;-71
2022/08/17 12:21:27;;;;;;;18.45;7.47;;;;;;;28.83;100.00;98895.80;1726520;82;21616;-72
2022/08/17 12:24:04;;;;;;;20.52;8.00;;;;;;;28.73;100.00;98898.70;1715847;83;21090;-73
2022/08/17 12:26:33;;;;;;;18.40;7.50;;;;;;;28.50;100.00;98910.43;1720375;82;21576;-72
2022/08/17 12:29:08;;;;;;;14.98;7.30;;;;;;;28.29;100.00;98904.98;1719047;83;21064;-71
2022/08/17 12:31:38;;;;;;;17.45;7.20;;;;;;;28.13;100.00;98901.27;1719007;83;21090;-70
2022/08/17 12:34:04;;;;;;;13.20;7.42;;;;;;;27.98;100.00;98905.34;1718989;83;21120;-73
2022/08/17 12:36:31;;;;;;;15.05;7.33;;;;;;;27.83;100.00;98902.42;1729754;82;21087;-73
2022/08/17 12:39:03;;;;;;;16.05;7.30;;;;;;;27.78;100.00;98907.02;1739276;82;21046;-72